sensor_id;sensor_type;location;lat;lon;timestamp;pressure;altitude;pressure_sealevel;temperature;humidity
37972;BME280;23794;48.234;8.344;2024-01-15T00:00:51;93210.88;;;-4.31;75.77
37972;BME280;23794;48.234;8.344;2024-01-15T00:03:18;93211.22;;;-4.33;75.26
37972;BME280;23794;48.234;8.344;2024-01-15T00:05:45;93210.13;;;-4.20;75.06
37972;BME280;23794;48.234;8.344;2024-01-15T00:08:12;93204.00;;;-4.20;74.70
37972;BME280;23794;48.234;8.344;2024-01-15T00:10:39;93193.53;;;-4.13;74.80
37972;BME280;23794;48.234;8.344;2024-01-15T00:13:07;93201.16;;;-4.03;74.69
37972;BME280;23794;48.234;8.344;2024-01-15T00:15:34;93202.13;;;-4.07;74.81
37972;BME280;23794;48.234;8.344;2024-01-15T00:18:01;93198.25;;;-4.10;75.09
37972;BME280;23794;48.234;8.344;2024-01-15T00:20:28;93204.94;;;-4.04;74.64
37972;BME280;23794;48.234;8.344;2024-01-15T00:22:56;93191.22;;;-4.02;74.85
37972;BME280;23794;48.234;8.344;2024-01-15T00:25:23;93201.69;;;-3.97;74.68
37972;BME280;23794;48.234;8.344;2024-01-15T00:27:50;93198.34;;;-3.94;74.65
37972;BME280;23794;48.234;8.344;2024-01-15T00:30:17;93199.13;;;-3.93;74.73
37972;BME280;23794;48.234;8.344;2024-01-15T00:32:43;93189.66;;;-3.91;74.16
37972;BME280;23794;48.234;8.344;2024-01-15T00:35:10;93202.72;;;-3.89;74.31
37972;BME280;23794;48.234;8.344;2024-01-15T00:37:37;93196.78;;;-3.82;74.38
37972;BME280;23794;48.234;8.344;2024-01-15T00:40:04;93201.94;;;-3.77;74.18
37972;BME280;23794;48.234;8.344;2024-01-15T00:42:31;93198.25;;;-3.73;74.25
37972;BME280;23794;48.234;8.344;2024-01-15T00:44:58;93197.81;;;-3.75;74.28
37972;BME280;23794;48.234;8.344;2024-01-15T00:47:25;93196.78;;;-3.82;74.51
37972;BME280;23794;48.234;8.344;2024-01-15T00:49:52;93195.59;;;-3.73;74.38
37972;BME280;23794;48.234;8.344;2024-01-15T00:52:19;93196.22;;;-3.63;73.95
37972;BME280;23794;48.234;8.344;2024-01-15T00:54:45;93194.78;;;-3.73;74.56
37972;BME280;23794;48.234;8.344;2024-01-15T00:57:12;93194.91;;;-3.69;74.30
37972;BME280;23794;48.234;8.344;2024-01-15T00:59:39;93196.13;;;-3.67;74.52
37972;BME280;23794;48.234;8.344;2024-01-15T01:02:06;93197.78;;;-3.62;74.22
37972;BME280;23794;48.234;8.344;2024-01-15T01:04:32;93191.44;;;-3.58;74.21
37972;BME280;23794;48.234;8.344;2024-01-15T01:06:59;93187.09;;;-3.50;74.17
37972;BME280;23794;48.234;8.344;2024-01-15T01:09:26;93198.47;;;-3.53;74.38
37972;BME280;23794;48.234;8.344;2024-01-15T01:11:56;93192.44;;;-3.50;74.21
37972;BME280;23794;48.234;8.344;2024-01-15T01:14:22;93202.84;;;-3.61;74.48
37972;BME280;23794;48.234;8.344;2024-01-15T01:16:49;93196.03;;;-3.58;74.42
37972;BME280;23794;48.234;8.344;2024-01-15T01:19:16;93200.81;;;-3.51;74.70
37972;BME280;23794;48.234;8.344;2024-01-15T01:21:43;93187.63;;;-3.44;74.55
37972;BME280;23794;48.234;8.344;2024-01-15T01:24:10;93202.56;;;-3.43;74.44
37972;BME280;23794;48.234;8.344;2024-01-15T01:26:37;93193.09;;;-3.41;74.75
37972;BME280;23794;48.234;8.344;2024-01-15T01:29:04;93194.75;;;-3.36;74.92
37972;BME280;23794;48.234;8.344;2024-01-15T01:31:30;93193.66;;;-3.35;74.26
37972;BME280;23794;48.234;8.344;2024-01-15T01:33:57;93194.75;;;-3.36;74.00
37972;BME280;23794;48.234;8.344;2024-01-15T01:36:24;93196.09;;;-3.42;74.47
37972;BME280;23794;48.234;8.344;2024-01-15T01:38:50;93191.97;;;-3.40;74.42
37972;BME280;23794;48.234;8.344;2024-01-15T01:41:17;93190.09;;;-3.51;74.58
37972;BME280;23794;48.234;8.344;2024-01-15T01:43:44;93199.56;;;-3.54;74.77
37972;BME280;23794;48.234;8.344;2024-01-15T01:46:10;93186.41;;;-3.47;74.46
37972;BME280;23794;48.234;8.344;2024-01-15T01:48:39;93186.06;;;-3.45;74.48
37972;BME280;23794;48.234;8.344;2024-01-15T01:51:06;93198.34;;;-3.44;74.75
37972;BME280;23794;48.234;8.344;2024-01-15T01:53:34;93195.22;;;-3.46;74.70
37972;BME280;23794;48.234;8.344;2024-01-15T01:56:04;93205.25;;;-3.43;74.45
37972;BME280;23794;48.234;8.344;2024-01-15T01:58:32;93200.91;;;-3.48;74.51
37972;BME280;23794;48.234;8.344;2024-01-15T02:00:59;93195.78;;;-3.53;74.88
37972;BME280;23794;48.234;8.344;2024-01-15T02:03:27;93195.13;;;-3.50;75.16
37972;BME280;23794;48.234;8.344;2024-01-15T02:05:55;93199.03;;;-3.47;74.92
37972;BME280;23794;48.234;8.344;2024-01-15T02:08:23;93179.28;;;-3.43;74.71
37972;BME280;23794;48.234;8.344;2024-01-15T02:10:49;93179.28;;;-3.43;74.72
37972;BME280;23794;48.234;8.344;2024-01-15T02:13:17;93183.28;;;-3.36;74.76
37972;BME280;23794;48.234;8.344;2024-01-15T02:15:44;93171.56;;;-3.44;74.72
37972;BME280;23794;48.234;8.344;2024-01-15T02:18:11;93177.72;;;-3.44;74.79
37972;BME280;23794;48.234;8.344;2024-01-15T02:20:38;93181.16;;;-3.43;74.85
37972;BME280;23794;48.234;8.344;2024-01-15T02:23:15;93179.47;;;-3.48;74.63
37972;BME280;23794;48.234;8.344;2024-01-15T02:28:10;93168.56;;;-3.43;73.94
37972;BME280;23794;48.234;8.344;2024-01-15T02:30:37;93168.34;;;-3.50;74.57
37972;BME280;23794;48.234;8.344;2024-01-15T02:33:09;93176.94;;;-3.57;74.94
37972;BME280;23794;48.234;8.344;2024-01-15T02:35:37;93161.31;;;-3.55;74.80
37972;BME280;23794;48.234;8.344;2024-01-15T02:38:05;93165.94;;;-3.80;75.65
37972;BME280;23794;48.234;8.344;2024-01-15T02:40:32;93160.91;;;-3.69;75.27
37972;BME280;23794;48.234;8.344;2024-01-15T02:42:59;93162.78;;;-3.69;75.39
37972;BME280;23794;48.234;8.344;2024-01-15T02:45:27;93159.09;;;-3.65;75.07
37972;BME280;23794;48.234;8.344;2024-01-15T02:47:54;93162.66;;;-3.73;75.63
37972;BME280;23794;48.234;8.344;2024-01-15T02:50:21;93157.63;;;-3.62;75.52
37972;BME280;23794;48.234;8.344;2024-01-15T02:52:47;93161.53;;;-3.60;75.68
37972;BME280;23794;48.234;8.344;2024-01-15T02:55:14;93168.56;;;-3.55;75.70
37972;BME280;23794;48.234;8.344;2024-01-15T02:57:41;93163.41;;;-3.48;75.14
37972;BME280;23794;48.234;8.344;2024-01-15T03:00:08;93162.44;;;-3.56;75.30
37972;BME280;23794;48.234;8.344;2024-01-15T03:02:38;93159.06;;;-3.52;75.13
37972;BME280;23794;48.234;8.344;2024-01-15T03:05:09;93159.88;;;-3.52;75.38
37972;BME280;23794;48.234;8.344;2024-01-15T03:07:36;93166.88;;;-3.60;75.16
37972;BME280;23794;48.234;8.344;2024-01-15T03:10:03;93172.69;;;-3.58;75.81
37972;BME280;23794;48.234;8.344;2024-01-15T03:12:29;93173.25;;;-3.52;75.13
37972;BME280;23794;48.234;8.344;2024-01-15T03:14:56;93166.56;;;-3.58;75.45
37972;BME280;23794;48.234;8.344;2024-01-15T03:17:26;93170.13;;;-3.54;75.21
37972;BME280;23794;48.234;8.344;2024-01-15T03:19:52;93167.44;;;-3.54;75.65
37972;BME280;23794;48.234;8.344;2024-01-15T03:22:19;93167.66;;;-3.47;75.27
37972;BME280;23794;48.234;8.344;2024-01-15T03:24:46;93168.66;;;-3.39;75.23
37972;BME280;23794;48.234;8.344;2024-01-15T03:27:13;93164.53;;;-3.36;75.19
37972;BME280;23794;48.234;8.344;2024-01-15T03:29:40;93154.38;;;-3.31;75.16
37972;BME280;23794;48.234;8.344;2024-01-15T03:32:07;93162.50;;;-3.27;74.36
37972;BME280;23794;48.234;8.344;2024-01-15T03:34:34;93166.41;;;-3.25;74.81
37972;BME280;23794;48.234;8.344;2024-01-15T03:37:00;93178.44;;;-3.18;74.34
37972;BME280;23794;48.234;8.344;2024-01-15T03:39:27;93166.31;;;-3.28;74.48
37972;BME280;23794;48.234;8.344;2024-01-15T03:41:54;93160.16;;;-3.29;74.61
37972;BME280;23794;48.234;8.344;2024-01-15T03:44:20;93159.47;;;-3.26;74.35
37972;BME280;23794;48.234;8.344;2024-01-15T03:46:47;93160.03;;;-3.20;74.08
37972;BME280;23794;48.234;8.344;2024-01-15T03:49:13;93159.81;;;-3.27;74.16
37972;BME280;23794;48.234;8.344;2024-01-15T03:51:40;93159.38;;;-3.29;74.60
37972;BME280;23794;48.234;8.344;2024-01-15T03:54:07;93156.56;;;-3.20;74.80
37972;BME280;23794;48.234;8.344;2024-01-15T03:56:33;93146.75;;;-3.16;74.42
37972;BME280;23794;48.234;8.344;2024-01-15T03:59:00;93136.13;;;-3.13;73.98
37972;BME280;23794;48.234;8.344;2024-01-15T04:01:27;93143.47;;;-3.10;74.13
37972;BME280;23794;48.234;8.344;2024-01-15T04:03:54;93141.59;;;-3.09;73.85
37972;BME280;23794;48.234;8.344;2024-01-15T04:06:21;93130.50;;;-3.08;74.18
37972;BME280;23794;48.234;8.344;2024-01-15T04:08:47;93130.72;;;-3.00;73.93
37972;BME280;23794;48.234;8.344;2024-01-15T04:11:14;93131.19;;;-3.11;73.71
37972;BME280;23794;48.234;8.344;2024-01-15T04:13:41;93141.81;;;-3.14;74.01
37972;BME280;23794;48.234;8.344;2024-01-15T04:16:08;93140.88;;;-3.06;74.17
37972;BME280;23794;48.234;8.344;2024-01-15T04:18:35;93137.63;;;-2.99;73.82
37972;BME280;23794;48.234;8.344;2024-01-15T04:21:04;93132.94;;;-3.02;73.28
37972;BME280;23794;48.234;8.344;2024-01-15T04:23:32;93144.69;;;-3.07;73.88
37972;BME280;23794;48.234;8.344;2024-01-15T04:25:59;93136.63;;;-3.07;73.82
37972;BME280;23794;48.234;8.344;2024-01-15T04:28:26;93138.09;;;-3.10;73.80
37972;BME280;23794;48.234;8.344;2024-01-15T04:30:53;93140.13;;;-3.07;74.15
37972;BME280;23794;48.234;8.344;2024-01-15T04:33:19;93143.81;;;-3.11;74.46
37972;BME280;23794;48.234;8.344;2024-01-15T04:35:46;93127.16;;;-3.04;74.25
37972;BME280;23794;48.234;8.344;2024-01-15T04:38:13;93136.22;;;-3.09;74.63
37972;BME280;23794;48.234;8.344;2024-01-15T04:40:40;93135.09;;;-3.08;75.35
37972;BME280;23794;48.234;8.344;2024-01-15T04:43:07;93130.16;;;-3.06;74.87
37972;BME280;23794;48.234;8.344;2024-01-15T04:45:34;93130.63;;;-3.04;74.97
37972;BME280;23794;48.234;8.344;2024-01-15T04:48:01;93124.38;;;-3.08;75.30
37972;BME280;23794;48.234;8.344;2024-01-15T04:50:28;93128.84;;;-3.12;75.48
37972;BME280;23794;48.234;8.344;2024-01-15T04:52:55;93129.09;;;-3.17;75.61
37972;BME280;23794;48.234;8.344;2024-01-15T04:55:21;93118.03;;;-3.16;75.93
37972;BME280;23794;48.234;8.344;2024-01-15T04:57:48;93116.03;;;-3.19;76.14
37972;BME280;23794;48.234;8.344;2024-01-15T05:00:15;93112.69;;;-3.16;75.98
37972;BME280;23794;48.234;8.344;2024-01-15T05:02:42;93130.47;;;-3.24;75.87
37972;BME280;23794;48.234;8.344;2024-01-15T05:05:09;93129.41;;;-3.19;75.94
37972;BME280;23794;48.234;8.344;2024-01-15T05:07:36;93132.78;;;-3.22;75.35
37972;BME280;23794;48.234;8.344;2024-01-15T05:10:03;93146.28;;;-3.18;75.49
37972;BME280;23794;48.234;8.344;2024-01-15T05:12:30;93122.38;;;-3.11;74.61
37972;BME280;23794;48.234;8.344;2024-01-15T05:14:57;93133.34;;;-3.16;74.54
37972;BME280;23794;48.234;8.344;2024-01-15T05:17:23;93133.00;;;-3.15;74.13
37972;BME280;23794;48.234;8.344;2024-01-15T05:19:50;93121.50;;;-3.15;73.73
37972;BME280;23794;48.234;8.344;2024-01-15T05:22:17;93128.50;;;-3.11;73.75
37972;BME280;23794;48.234;8.344;2024-01-15T05:24:44;93129.31;;;-3.10;73.21
37972;BME280;23794;48.234;8.344;2024-01-15T05:27:10;93120.25;;;-3.05;72.65
37972;BME280;23794;48.234;8.344;2024-01-15T05:29:37;93134.69;;;-3.23;73.06
37972;BME280;23794;48.234;8.344;2024-01-15T05:32:04;93132.22;;;-3.15;73.14
37972;BME280;23794;48.234;8.344;2024-01-15T05:34:31;93128.69;;;-3.32;72.69
37972;BME280;23794;48.234;8.344;2024-01-15T05:36:57;93128.22;;;-3.21;72.99
37972;BME280;23794;48.234;8.344;2024-01-15T05:39:24;93122.81;;;-3.09;73.31
37972;BME280;23794;48.234;8.344;2024-01-15T05:41:51;93123.16;;;-3.11;73.21
37972;BME280;23794;48.234;8.344;2024-01-15T05:44:17;93117.47;;;-3.09;72.65
37972;BME280;23794;48.234;8.344;2024-01-15T05:46:44;93120.00;;;-3.00;72.84
37972;BME280;23794;48.234;8.344;2024-01-15T05:49:11;93119.66;;;-2.99;72.35
37972;BME280;23794;48.234;8.344;2024-01-15T05:51:38;93119.22;;;-3.01;72.66
37972;BME280;23794;48.234;8.344;2024-01-15T05:54:04;93122.97;;;-2.89;72.10
37972;BME280;23794;48.234;8.344;2024-01-15T05:56:31;93112.16;;;-2.93;71.28
37972;BME280;23794;48.234;8.344;2024-01-15T05:58:57;93111.69;;;-2.95;71.73
37972;BME280;23794;48.234;8.344;2024-01-15T06:01:24;93110.13;;;-2.96;71.43
37972;BME280;23794;48.234;8.344;2024-01-15T06:03:52;93118.97;;;-2.96;71.88
37972;BME280;23794;48.234;8.344;2024-01-15T06:06:18;93101.44;;;-2.93;71.71
37972;BME280;23794;48.234;8.344;2024-01-15T06:08:45;93106.69;;;-2.97;71.06
37972;BME280;23794;48.234;8.344;2024-01-15T06:11:12;93106.94;;;-3.02;71.97
37972;BME280;23794;48.234;8.344;2024-01-15T06:13:38;93101.59;;;-3.02;70.57
37972;BME280;23794;48.234;8.344;2024-01-15T06:16:14;93093.28;;;-2.97;70.88
37972;BME280;23794;48.234;8.344;2024-01-15T06:18:43;93096.66;;;-3.00;71.44
37972;BME280;23794;48.234;8.344;2024-01-15T06:21:10;93097.00;;;-3.01;71.44
37972;BME280;23794;48.234;8.344;2024-01-15T06:23:39;93094.66;;;-3.03;70.97
37972;BME280;23794;48.234;8.344;2024-01-15T06:26:05;93099.22;;;-3.03;70.33
37972;BME280;23794;48.234;8.344;2024-01-15T06:28:32;93108.50;;;-3.01;70.66
37972;BME280;23794;48.234;8.344;2024-01-15T06:30:59;93095.69;;;-3.08;70.14
37972;BME280;23794;48.234;8.344;2024-01-15T06:33:25;93097.19;;;-3.23;68.52
37972;BME280;23794;48.234;8.344;2024-01-15T06:35:52;93095.50;;;-3.15;68.43
37972;BME280;23794;48.234;8.344;2024-01-15T06:38:19;93097.78;;;-3.01;68.83
37972;BME280;23794;48.234;8.344;2024-01-15T06:40:45;93099.00;;;-2.98;67.69
37972;BME280;23794;48.234;8.344;2024-01-15T06:43:18;93100.75;;;-2.90;68.25
37972;BME280;23794;48.234;8.344;2024-01-15T06:45:44;93103.44;;;-2.90;67.95
37972;BME280;23794;48.234;8.344;2024-01-15T06:48:11;93102.19;;;-2.93;68.34
37972;BME280;23794;48.234;8.344;2024-01-15T06:50:43;93094.94;;;-2.92;67.91
37972;BME280;23794;48.234;8.344;2024-01-15T06:53:10;93100.41;;;-2.88;67.10
37972;BME280;23794;48.234;8.344;2024-01-15T06:55:37;93089.09;;;-2.82;67.59
37972;BME280;23794;48.234;8.344;2024-01-15T06:58:03;93092.53;;;-2.81;67.45
37972;BME280;23794;48.234;8.344;2024-01-15T07:00:30;93087.09;;;-2.85;67.89
37972;BME280;23794;48.234;8.344;2024-01-15T07:02:57;93087.94;;;-2.81;67.65
37972;BME280;23794;48.234;8.344;2024-01-15T07:05:23;93088.66;;;-2.84;68.01
37972;BME280;23794;48.234;8.344;2024-01-15T07:07:50;93081.06;;;-2.82;68.37
37972;BME280;23794;48.234;8.344;2024-01-15T07:10:17;93075.34;;;-2.80;67.91
37972;BME280;23794;48.234;8.344;2024-01-15T07:12:44;93078.03;;;-2.80;67.83
37972;BME280;23794;48.234;8.344;2024-01-15T07:15:10;93086.50;;;-2.78;66.43
37972;BME280;23794;48.234;8.344;2024-01-15T07:17:37;93081.47;;;-2.80;66.10
37972;BME280;23794;48.234;8.344;2024-01-15T07:20:07;93091.97;;;-2.74;67.31
37972;BME280;23794;48.234;8.344;2024-01-15T07:22:37;93070.16;;;-2.73;66.90
37972;BME280;23794;48.234;8.344;2024-01-15T07:25:05;93073.19;;;-2.74;66.78
37972;BME280;23794;48.234;8.344;2024-01-15T07:27:32;93071.81;;;-2.68;67.79
37972;BME280;23794;48.234;8.344;2024-01-15T07:29:59;93058.94;;;-2.63;66.72
37972;BME280;23794;48.234;8.344;2024-01-15T07:32:28;93060.47;;;-2.62;67.21
37972;BME280;23794;48.234;8.344;2024-01-15T07:34:55;93055.91;;;-2.61;67.12
37972;BME280;23794;48.234;8.344;2024-01-15T07:37:22;93047.50;;;-2.60;66.58
37972;BME280;23794;48.234;8.344;2024-01-15T07:39:50;93050.53;;;-2.61;66.90
37972;BME280;23794;48.234;8.344;2024-01-15T07:42:17;93049.56;;;-2.69;67.23
37972;BME280;23794;48.234;8.344;2024-01-15T07:44:43;93052.25;;;-2.69;67.86
37972;BME280;23794;48.234;8.344;2024-01-15T07:47:11;93045.94;;;-2.61;68.10
37972;BME280;23794;48.234;8.344;2024-01-15T07:49:38;93042.16;;;-2.60;67.24
37972;BME280;23794;48.234;8.344;2024-01-15T07:52:05;93049.75;;;-2.62;67.25
37972;BME280;23794;48.234;8.344;2024-01-15T07:54:32;93047.88;;;-2.61;67.10
37972;BME280;23794;48.234;8.344;2024-01-15T07:57:00;93042.84;;;-2.63;67.05
37972;BME280;23794;48.234;8.344;2024-01-15T07:59:29;93052.16;;;-2.72;66.39
37972;BME280;23794;48.234;8.344;2024-01-15T08:01:56;93045.69;;;-2.71;66.31
37972;BME280;23794;48.234;8.344;2024-01-15T08:04:22;93051.50;;;-2.69;66.17
37972;BME280;23794;48.234;8.344;2024-01-15T08:06:49;93064.53;;;-2.68;65.75
37972;BME280;23794;48.234;8.344;2024-01-15T08:09:16;93060.25;;;-2.56;65.75
37972;BME280;23794;48.234;8.344;2024-01-15T08:11:43;93070.25;;;-2.53;65.80
37972;BME280;23794;48.234;8.344;2024-01-15T08:14:10;93070.25;;;-2.53;64.52
37972;BME280;23794;48.234;8.344;2024-01-15T08:16:37;93072.25;;;-2.34;65.51
37972;BME280;23794;48.234;8.344;2024-01-15T08:19:04;93083.06;;;-2.31;64.64
37972;BME280;23794;48.234;8.344;2024-01-15T08:21:32;93078.59;;;-2.26;65.73
37972;BME280;23794;48.234;8.344;2024-01-15T08:24:00;93085.50;;;-2.25;65.78
37972;BME280;23794;48.234;8.344;2024-01-15T08:26:27;93075.47;;;-2.29;65.18
37972;BME280;23794;48.234;8.344;2024-01-15T08:28:54;93088.59;;;-2.23;65.03
37972;BME280;23794;48.234;8.344;2024-01-15T08:31:20;93090.69;;;-2.17;65.31
37972;BME280;23794;48.234;8.344;2024-01-15T08:33:47;93081.88;;;-2.17;65.90
37972;BME280;23794;48.234;8.344;2024-01-15T08:36:14;93072.91;;;-2.05;65.61
37972;BME280;23794;48.234;8.344;2024-01-15T08:38:41;93074.66;;;-1.97;65.14
37972;BME280;23794;48.234;8.344;2024-01-15T08:41:07;93072.31;;;-1.99;65.60
37972;BME280;23794;48.234;8.344;2024-01-15T08:43:34;93063.59;;;-1.96;66.07
37972;BME280;23794;48.234;8.344;2024-01-15T08:46:02;93068.31;;;-1.89;65.91
37972;BME280;23794;48.234;8.344;2024-01-15T08:48:29;93063.91;;;-1.97;64.86
37972;BME280;23794;48.234;8.344;2024-01-15T08:50:56;93063.03;;;-1.85;64.81
37972;BME280;23794;48.234;8.344;2024-01-15T08:53:23;93052.88;;;-1.76;64.04
37972;BME280;23794;48.234;8.344;2024-01-15T08:55:50;93053.03;;;-1.69;64.82
37972;BME280;23794;48.234;8.344;2024-01-15T08:58:17;93048.53;;;-1.65;64.40
37972;BME280;23794;48.234;8.344;2024-01-15T09:00:44;93044.63;;;-1.67;64.18
37972;BME280;23794;48.234;8.344;2024-01-15T09:03:11;93048.84;;;-1.66;63.57
37972;BME280;23794;48.234;8.344;2024-01-15T09:05:38;93054.31;;;-1.62;64.12
37972;BME280;23794;48.234;8.344;2024-01-15T09:08:05;93043.50;;;-1.66;62.98
37972;BME280;23794;48.234;8.344;2024-01-15T09:10:32;93051.13;;;-1.68;62.50
37972;BME280;23794;48.234;8.344;2024-01-15T09:12:58;93041.59;;;-1.66;63.34
37972;BME280;23794;48.234;8.344;2024-01-15T09:15:26;93041.81;;;-1.55;63.85
37972;BME280;23794;48.234;8.344;2024-01-15T09:17:54;93039.97;;;-1.51;62.22
37972;BME280;23794;48.234;8.344;2024-01-15T09:20:21;93037.09;;;-1.42;62.58
37972;BME280;23794;48.234;8.344;2024-01-15T09:22:47;93039.84;;;-1.38;62.00
37972;BME280;23794;48.234;8.344;2024-01-15T09:25:14;93034.47;;;-1.38;63.00
37972;BME280;23794;48.234;8.344;2024-01-15T09:27:41;93028.31;;;-1.39;61.97
37972;BME280;23794;48.234;8.344;2024-01-15T09:30:08;93031.22;;;-1.28;62.40
37972;BME280;23794;48.234;8.344;2024-01-15T09:32:35;93037.72;;;-1.29;62.21
37972;BME280;23794;48.234;8.344;2024-01-15T09:35:02;93033.13;;;-1.28;61.25
37972;BME280;23794;48.234;8.344;2024-01-15T09:37:29;93027.66;;;-1.12;61.46
37972;BME280;23794;48.234;8.344;2024-01-15T09:40:13;93034.31;;;-1.06;61.22
37972;BME280;23794;48.234;8.344;2024-01-15T09:42:44;93031.81;;;-0.95;61.00
37972;BME280;23794;48.234;8.344;2024-01-15T09:45:11;93039.25;;;-0.89;60.68
37972;BME280;23794;48.234;8.344;2024-01-15T09:47:40;93032.00;;;-0.85;60.71
37972;BME280;23794;48.234;8.344;2024-01-15T09:50:13;93027.84;;;-0.82;61.03
37972;BME280;23794;48.234;8.344;2024-01-15T09:52:40;93037.66;;;-0.70;61.15
37972;BME280;23794;48.234;8.344;2024-01-15T09:55:09;93027.38;;;-0.64;60.40
37972;BME280;23794;48.234;8.344;2024-01-15T09:57:36;93035.03;;;-0.66;59.85
37972;BME280;23794;48.234;8.344;2024-01-15T10:00:04;93034.59;;;-0.69;60.04
37972;BME280;23794;48.234;8.344;2024-01-15T10:02:35;93034.34;;;-0.83;59.38
37972;BME280;23794;48.234;8.344;2024-01-15T10:05:02;93033.88;;;-0.89;60.19
37972;BME280;23794;48.234;8.344;2024-01-15T10:07:30;93032.94;;;-0.77;61.42
37972;BME280;23794;48.234;8.344;2024-01-15T10:10:00;93035.19;;;-0.79;59.54
37972;BME280;23794;48.234;8.344;2024-01-15T10:12:27;93033.69;;;-0.76;60.66
37972;BME280;23794;48.234;8.344;2024-01-15T10:14:55;93038.59;;;-0.82;60.05
37972;BME280;23794;48.234;8.344;2024-01-15T10:17:24;93031.75;;;-0.99;60.64
37972;BME280;23794;48.234;8.344;2024-01-15T10:19:50;93028.28;;;-0.99;60.41
37972;BME280;23794;48.234;8.344;2024-01-15T10:22:17;93034.91;;;-1.17;60.81
37972;BME280;23794;48.234;8.344;2024-01-15T10:24:45;93029.84;;;-1.18;61.58
37972;BME280;23794;48.234;8.344;2024-01-15T10:27:15;93022.53;;;-1.21;61.91
37972;BME280;23794;48.234;8.344;2024-01-15T10:29:42;93016.78;;;-1.20;62.30
37972;BME280;23794;48.234;8.344;2024-01-15T10:32:09;93013.31;;;-1.20;62.29
37972;BME280;23794;48.234;8.344;2024-01-15T10:34:41;93020.31;;;-1.15;62.27
37972;BME280;23794;48.234;8.344;2024-01-15T10:37:10;93017.34;;;-1.10;62.34
37972;BME280;23794;48.234;8.344;2024-01-15T10:39:37;93009.66;;;-1.12;61.83
37972;BME280;23794;48.234;8.344;2024-01-15T10:42:05;93010.72;;;-1.17;61.87
37972;BME280;23794;48.234;8.344;2024-01-15T10:44:33;93004.59;;;-1.13;62.22
37972;BME280;23794;48.234;8.344;2024-01-15T10:47:01;93008.50;;;-1.11;62.13
37972;BME280;23794;48.234;8.344;2024-01-15T10:49:28;93006.53;;;-1.14;61.94
37972;BME280;23794;48.234;8.344;2024-01-15T10:52:01;93007.47;;;-1.26;61.90
37972;BME280;23794;48.234;8.344;2024-01-15T10:54:29;93007.16;;;-1.21;62.23
37972;BME280;23794;48.234;8.344;2024-01-15T10:56:56;92998.47;;;-1.14;62.35
37972;BME280;23794;48.234;8.344;2024-01-15T10:59:23;93009.78;;;-1.05;62.70
37972;BME280;23794;48.234;8.344;2024-01-15T11:01:51;93006.16;;;-1.12;62.43
37972;BME280;23794;48.234;8.344;2024-01-15T11:04:22;93011.84;;;-1.18;62.51
37972;BME280;23794;48.234;8.344;2024-01-15T11:06:52;93002.34;;;-1.11;63.07
37972;BME280;23794;48.234;8.344;2024-01-15T11:09:22;92997.09;;;-1.04;63.25
37972;BME280;23794;48.234;8.344;2024-01-15T11:12:02;92992.59;;;-1.20;63.11
37972;BME280;23794;48.234;8.344;2024-01-15T11:14:44;92988.34;;;-1.21;63.49
37972;BME280;23794;48.234;8.344;2024-01-15T11:17:13;92986.97;;;-1.11;63.79
37972;BME280;23794;48.234;8.344;2024-01-15T11:19:45;92997.09;;;-1.04;63.16
37972;BME280;23794;48.234;8.344;2024-01-15T11:25:01;92991.41;;;-0.99;63.83
37972;BME280;23794;48.234;8.344;2024-01-15T11:27:41;92998.09;;;-1.12;64.03
37972;BME280;23794;48.234;8.344;2024-01-15T11:30:09;92990.28;;;-1.21;64.04
37972;BME280;23794;48.234;8.344;2024-01-15T11:32:42;92995.38;;;-1.36;65.25
37972;BME280;23794;48.234;8.344;2024-01-15T11:35:10;92992.69;;;-1.36;65.67
37972;BME280;23794;48.234;8.344;2024-01-15T11:40:22;92994.38;;;-1.27;65.86
37972;BME280;23794;48.234;8.344;2024-01-15T11:42:49;92982.03;;;-1.09;65.50
37972;BME280;23794;48.234;8.344;2024-01-15T11:45:18;92983.22;;;-1.06;65.96
37972;BME280;23794;48.234;8.344;2024-01-15T11:48:11;92974.47;;;-1.03;65.98
37972;BME280;23794;48.234;8.344;2024-01-15T11:50:44;92967.91;;;-1.06;65.77
37972;BME280;23794;48.234;8.344;2024-01-15T11:55:51;92976.84;;;-0.98;65.32
37972;BME280;23794;48.234;8.344;2024-01-15T11:58:18;92971.97;;;-0.92;65.23
37972;BME280;23794;48.234;8.344;2024-01-15T12:00:47;92952.38;;;-0.93;65.10
37972;BME280;23794;48.234;8.344;2024-01-15T12:03:16;92949.19;;;-0.98;65.88
37972;BME280;23794;48.234;8.344;2024-01-15T12:05:43;92947.69;;;-0.96;66.03
37972;BME280;23794;48.234;8.344;2024-01-15T12:08:09;92949.06;;;-0.82;65.88
37972;BME280;23794;48.234;8.344;2024-01-15T12:10:40;92963.44;;;-0.75;65.73
37972;BME280;23794;48.234;8.344;2024-01-15T12:13:13;92949.13;;;-0.79;65.42
37972;BME280;23794;48.234;8.344;2024-01-15T12:15:44;92964.38;;;-0.87;65.98
37972;BME280;23794;48.234;8.344;2024-01-15T12:18:12;92959.72;;;-0.90;66.30
37972;BME280;23794;48.234;8.344;2024-01-15T12:20:41;92961.38;;;-1.05;66.98
37972;BME280;23794;48.234;8.344;2024-01-15T12:23:09;92962.41;;;-1.13;67.22
37972;BME280;23794;48.234;8.344;2024-01-15T12:25:36;92949.41;;;-1.07;67.72
37972;BME280;23794;48.234;8.344;2024-01-15T12:28:04;92953.13;;;-0.92;67.77
37972;BME280;23794;48.234;8.344;2024-01-15T12:30:33;92960.78;;;-0.94;67.46
37972;BME280;23794;48.234;8.344;2024-01-15T12:33:04;92940.72;;;-1.01;67.57
37972;BME280;23794;48.234;8.344;2024-01-15T12:35:33;92949.19;;;-0.98;67.18
37972;BME280;23794;48.234;8.344;2024-01-15T12:38:00;92950.16;;;-0.87;67.46
37972;BME280;23794;48.234;8.344;2024-01-15T12:40:31;92949.00;;;-0.86;67.15
37972;BME280;23794;48.234;8.344;2024-01-15T12:42:59;92958.53;;;-0.92;67.62
37972;BME280;23794;48.234;8.344;2024-01-15T12:45:26;92949.75;;;-0.89;67.36
37972;BME280;23794;48.234;8.344;2024-01-15T12:47:53;92950.31;;;-0.76;67.67
37972;BME280;23794;48.234;8.344;2024-01-15T12:50:23;92940.94;;;-0.86;67.94
37972;BME280;23794;48.234;8.344;2024-01-15T12:52:50;92943.53;;;-0.93;68.15
37972;BME280;23794;48.234;8.344;2024-01-15T12:55:17;92944.59;;;-0.98;68.39
37972;BME280;23794;48.234;8.344;2024-01-15T12:57:43;92944.47;;;-1.05;68.57
37972;BME280;23794;48.234;8.344;2024-01-15T13:00:12;92951.91;;;-1.18;71.05
37972;BME280;23794;48.234;8.344;2024-01-15T13:02:44;92963.88;;;-1.15;70.99
37972;BME280;23794;48.234;8.344;2024-01-15T13:05:11;92946.22;;;-1.17;70.76
37972;BME280;23794;48.234;8.344;2024-01-15T13:07:40;92943.03;;;-1.22;71.51
37972;BME280;23794;48.234;8.344;2024-01-15T13:10:07;92951.28;;;-1.11;71.54
37972;BME280;23794;48.234;8.344;2024-01-15T13:12:37;92969.44;;;-1.05;71.26